sensor_id;sensor_type;location;lat;lon;timestamp;pressure;altitude;pressure_sealevel;temperature;humidity
36192;BME280;22233;42.708;23.360;2023-04-07T00:00:01;95154.44;;;3.59;59.52
36192;BME280;22233;42.708;23.360;2023-04-07T00:02:28;95150.63;;;3.70;59.03
36192;BME280;22233;42.708;23.360;2023-04-07T00:04:54;95143.66;;;3.64;58.53
36192;BME280;22233;42.708;23.360;2023-04-07T00:07:21;95137.22;;;3.60;59.02
36192;BME280;22233;42.708;23.360;2023-04-07T00:09:46;95143.31;;;3.81;58.15
36192;BME280;22233;42.708;23.360;2023-04-07T00:12:12;95138.19;;;3.85;58.44
36192;BME280;22233;42.708;23.360;2023-04-07T00:14:37;95149.38;;;4.02;58.54
36192;BME280;22233;42.708;23.360;2023-04-07T00:17:03;95138.44;;;3.88;58.22
36192;BME280;22233;42.708;23.360;2023-04-07T00:19:28;95135.13;;;4.02;57.91
36192;BME280;22233;42.708;23.360;2023-04-07T00:21:53;95137.34;;;3.89;57.93
36192;BME280;22233;42.708;23.360;2023-04-07T00:24:19;95145.41;;;3.94;58.05
36192;BME280;22233;42.708;23.360;2023-04-07T00:26:45;95148.44;;;3.77;58.61
36192;BME280;22233;42.708;23.360;2023-04-07T00:29:10;95146.41;;;3.49;58.96
36192;BME280;22233;42.708;23.360;2023-04-07T00:31:35;95135.41;;;3.45;59.42
36192;BME280;22233;42.708;23.360;2023-04-07T00:34:01;95149.03;;;3.64;58.43
36192;BME280;22233;42.708;23.360;2023-04-07T00:36:26;95138.56;;;3.63;58.58
36192;BME280;22233;42.708;23.360;2023-04-07T00:38:52;95132.09;;;3.69;59.08
36192;BME280;22233;42.708;23.360;2023-04-07T00:41:18;95134.75;;;3.74;58.31
36192;BME280;22233;42.708;23.360;2023-04-07T00:43:43;95134.94;;;3.88;58.53
36192;BME280;22233;42.708;23.360;2023-04-07T00:46:10;95146.75;;;3.92;57.58
36192;BME280;22233;42.708;23.360;2023-04-07T00:48:36;95147.59;;;3.87;58.30
36192;BME280;22233;42.708;23.360;2023-04-07T00:51:02;95129.03;;;3.86;57.79
36192;BME280;22233;42.708;23.360;2023-04-07T00:53:28;95140.06;;;3.84;57.75
36192;BME280;22233;42.708;23.360;2023-04-07T00:55:53;95128.63;;;3.63;58.64
36192;BME280;22233;42.708;23.360;2023-04-07T00:58:19;95137.09;;;3.86;58.17
36192;BME280;22233;42.708;23.360;2023-04-07T01:00:48;95140.56;;;3.91;57.98
36192;BME280;22233;42.708;23.360;2023-04-07T01:03:30;95129.31;;;3.89;57.43
36192;BME280;22233;42.708;23.360;2023-04-07T01:06:01;95135.22;;;3.86;57.88
36192;BME280;22233;42.708;23.360;2023-04-07T01:08:50;95127.19;;;3.81;58.49
36192;BME280;22233;42.708;23.360;2023-04-07T01:14:03;95117.50;;;3.85;58.43
36192;BME280;22233;42.708;23.360;2023-04-07T01:16:33;95125.00;;;3.88;58.04
36192;BME280;22233;42.708;23.360;2023-04-07T01:21:45;95126.03;;;3.97;57.90
36192;BME280;22233;42.708;23.360;2023-04-07T01:27:13;95116.84;;;4.04;57.53
36192;BME280;22233;42.708;23.360;2023-04-07T01:29:44;95122.56;;;3.92;58.24
36192;BME280;22233;42.708;23.360;2023-04-07T01:32:13;95131.72;;;3.86;58.99
36192;BME280;22233;42.708;23.360;2023-04-07T01:34:40;95134.66;;;3.94;58.18
36192;BME280;22233;42.708;23.360;2023-04-07T01:37:06;95129.56;;;3.93;58.20
36192;BME280;22233;42.708;23.360;2023-04-07T01:39:33;95126.19;;;3.67;59.24
36192;BME280;22233;42.708;23.360;2023-04-07T01:42:00;95131.00;;;3.70;58.72
36192;BME280;22233;42.708;23.360;2023-04-07T01:44:29;95111.66;;;3.68;58.61
36192;BME280;22233;42.708;23.360;2023-04-07T01:46:57;95121.56;;;3.77;58.79
36192;BME280;22233;42.708;23.360;2023-04-07T01:49:24;95118.03;;;3.87;58.82
36192;BME280;22233;42.708;23.360;2023-04-07T01:51:51;95124.19;;;3.93;58.50
36192;BME280;22233;42.708;23.360;2023-04-07T01:54:17;95119.09;;;3.86;59.16
36192;BME280;22233;42.708;23.360;2023-04-07T01:56:43;95109.41;;;3.90;58.27
36192;BME280;22233;42.708;23.360;2023-04-07T01:59:09;95116.91;;;3.98;58.40
36192;BME280;22233;42.708;23.360;2023-04-07T02:01:35;95108.78;;;4.04;58.09
36192;BME280;22233;42.708;23.360;2023-04-07T02:06:51;95106.34;;;3.57;60.01
36192;BME280;22233;42.708;23.360;2023-04-07T02:09:19;95104.47;;;3.58;59.38
36192;BME280;22233;42.708;23.360;2023-04-07T02:11:45;95096.06;;;3.75;58.79
36192;BME280;22233;42.708;23.360;2023-04-07T02:14:13;95102.75;;;3.77;58.71
36192;BME280;22233;42.708;23.360;2023-04-07T02:16:40;95114.81;;;3.80;59.26
36192;BME280;22233;42.708;23.360;2023-04-07T02:19:07;95112.66;;;3.87;58.83
36192;BME280;22233;42.708;23.360;2023-04-07T02:21:33;95109.44;;;3.85;59.40
36192;BME280;22233;42.708;23.360;2023-04-07T02:24:01;95112.25;;;3.65;60.18
36192;BME280;22233;42.708;23.360;2023-04-07T02:26:26;95111.03;;;3.86;59.00
36192;BME280;22233;42.708;23.360;2023-04-07T02:28:52;95108.84;;;3.93;59.03
36192;BME280;22233;42.708;23.360;2023-04-07T02:31:18;95114.16;;;4.04;58.57
36192;BME280;22233;42.708;23.360;2023-04-07T02:33:43;95115.19;;;4.13;58.37
36192;BME280;22233;42.708;23.360;2023-04-07T02:36:08;95120.91;;;4.01;59.22
36192;BME280;22233;42.708;23.360;2023-04-07T02:38:34;95110.59;;;3.69;59.93
36192;BME280;22233;42.708;23.360;2023-04-07T02:40:59;95116.41;;;3.86;60.05
36192;BME280;22233;42.708;23.360;2023-04-07T02:43:25;95106.69;;;3.95;59.85
36192;BME280;22233;42.708;23.360;2023-04-07T02:45:50;95118.50;;;3.99;59.55
36192;BME280;22233;42.708;23.360;2023-04-07T02:48:16;95109.44;;;3.80;59.84
36192;BME280;22233;42.708;23.360;2023-04-07T02:50:41;95109.72;;;3.84;59.27
36192;BME280;22233;42.708;23.360;2023-04-07T02:53:07;95106.00;;;3.74;59.85
36192;BME280;22233;42.708;23.360;2023-04-07T02:55:32;95120.66;;;3.97;59.56
36192;BME280;22233;42.708;23.360;2023-04-07T02:57:58;95120.75;;;4.22;58.75
36192;BME280;22233;42.708;23.360;2023-04-07T03:00:24;95129.94;;;4.20;58.92
36192;BME280;22233;42.708;23.360;2023-04-07T03:02:50;95115.22;;;4.08;58.48
36192;BME280;22233;42.708;23.360;2023-04-07T03:05:15;95114.06;;;4.19;58.08
36192;BME280;22233;42.708;23.360;2023-04-07T03:07:41;95116.56;;;4.05;58.13
36192;BME280;22233;42.708;23.360;2023-04-07T03:10:06;95120.06;;;4.06;57.61
36192;BME280;22233;42.708;23.360;2023-04-07T03:12:32;95122.72;;;4.11;57.89
36192;BME280;22233;42.708;23.360;2023-04-07T03:14:57;95103.94;;;3.56;59.09
36192;BME280;22233;42.708;23.360;2023-04-07T03:17:23;95099.03;;;3.73;58.60
36192;BME280;22233;42.708;23.360;2023-04-07T03:19:48;95104.53;;;3.92;58.17
36192;BME280;22233;42.708;23.360;2023-04-07T03:22:16;95108.72;;;4.14;58.05
36192;BME280;22233;42.708;23.360;2023-04-07T03:24:41;95112.91;;;4.30;58.38
36192;BME280;22233;42.708;23.360;2023-04-07T03:27:06;95108.13;;;4.22;58.57
36192;BME280;22233;42.708;23.360;2023-04-07T03:29:32;95101.16;;;4.16;58.50
36192;BME280;22233;42.708;23.360;2023-04-07T03:31:57;95113.16;;;4.34;58.29
36192;BME280;22233;42.708;23.360;2023-04-07T03:34:23;95111.56;;;4.33;57.83
36192;BME280;22233;42.708;23.360;2023-04-07T03:36:48;95115.22;;;4.42;57.68
36192;BME280;22233;42.708;23.360;2023-04-07T03:39:14;95124.63;;;4.45;57.95
36192;BME280;22233;42.708;23.360;2023-04-07T03:41:39;95114.94;;;4.49;58.36
36192;BME280;22233;42.708;23.360;2023-04-07T03:44:05;95114.53;;;4.31;57.93
36192;BME280;22233;42.708;23.360;2023-04-07T03:46:31;95115.13;;;4.18;58.47
36192;BME280;22233;42.708;23.360;2023-04-07T03:48:56;95110.25;;;4.25;58.35
36192;BME280;22233;42.708;23.360;2023-04-07T03:51:22;95124.56;;;4.15;59.10
36192;BME280;22233;42.708;23.360;2023-04-07T03:53:47;95115.19;;;3.68;60.04
36192;BME280;22233;42.708;23.360;2023-04-07T03:56:12;95133.38;;;3.82;60.53
36192;BME280;22233;42.708;23.360;2023-04-07T03:58:38;95126.34;;;3.91;59.74
36192;BME280;22233;42.708;23.360;2023-04-07T04:01:07;95114.94;;;3.65;59.95
36192;BME280;22233;42.708;23.360;2023-04-07T04:03:32;95117.66;;;3.54;60.03
36192;BME280;22233;42.708;23.360;2023-04-07T04:05:57;95132.06;;;3.74;60.21
36192;BME280;22233;42.708;23.360;2023-04-07T04:08:23;95135.28;;;3.76;60.22
36192;BME280;22233;42.708;23.360;2023-04-07T04:10:48;95139.63;;;3.62;60.88
36192;BME280;22233;42.708;23.360;2023-04-07T04:13:14;95130.78;;;3.61;60.87
36192;BME280;22233;42.708;23.360;2023-04-07T04:15:39;95125.75;;;3.44;60.67
36192;BME280;22233;42.708;23.360;2023-04-07T04:18:05;95133.28;;;3.42;61.29
36192;BME280;22233;42.708;23.360;2023-04-07T04:20:30;95144.00;;;3.47;61.81
36192;BME280;22233;42.708;23.360;2023-04-07T04:22:55;95143.47;;;3.50;61.71
36192;BME280;22233;42.708;23.360;2023-04-07T04:25:21;95154.44;;;3.54;61.36
36192;BME280;22233;42.708;23.360;2023-04-07T04:27:46;95152.53;;;3.59;60.78
36192;BME280;22233;42.708;23.360;2023-04-07T04:30:12;95150.69;;;3.50;60.63
36192;BME280;22233;42.708;23.360;2023-04-07T04:32:37;95159.06;;;3.38;60.92
36192;BME280;22233;42.708;23.360;2023-04-07T04:35:04;95154.19;;;3.50;60.33
36192;BME280;22233;42.708;23.360;2023-04-07T04:37:29;95158.22;;;3.53;60.15
36192;BME280;22233;42.708;23.360;2023-04-07T04:39:55;95151.25;;;3.47;60.35
36192;BME280;22233;42.708;23.360;2023-04-07T04:42:20;95154.44;;;3.54;60.05
36192;BME280;22233;42.708;23.360;2023-04-07T04:44:46;95153.69;;;3.38;60.10
36192;BME280;22233;42.708;23.360;2023-04-07T04:47:11;95152.88;;;3.43;60.49
36192;BME280;22233;42.708;23.360;2023-04-07T04:49:36;95160.47;;;3.20;60.80
36192;BME280;22233;42.708;23.360;2023-04-07T04:52:02;95165.53;;;3.27;60.78
36192;BME280;22233;42.708;23.360;2023-04-07T04:54:27;95168.44;;;3.51;60.21
36192;BME280;22233;42.708;23.360;2023-04-07T04:56:53;95175.38;;;3.57;60.72
36192;BME280;22233;42.708;23.360;2023-04-07T04:59:20;95171.03;;;3.66;60.24
36192;BME280;22233;42.708;23.360;2023-04-07T05:01:46;95176.66;;;3.75;60.16
36192;BME280;22233;42.708;23.360;2023-04-07T05:04:12;95170.50;;;3.74;61.26
36192;BME280;22233;42.708;23.360;2023-04-07T05:06:37;95184.16;;;3.83;60.79
36192;BME280;22233;42.708;23.360;2023-04-07T05:09:02;95170.41;;;3.95;59.50
36192;BME280;22233;42.708;23.360;2023-04-07T05:11:28;95169.09;;;3.87;60.47
36192;BME280;22233;42.708;23.360;2023-04-07T05:13:53;95186.53;;;3.95;59.92
36192;BME280;22233;42.708;23.360;2023-04-07T05:16:19;95191.31;;;4.03;60.29
36192;BME280;22233;42.708;23.360;2023-04-07T05:18:45;95180.28;;;4.05;60.25
36192;BME280;22233;42.708;23.360;2023-04-07T05:21:10;95186.63;;;4.24;59.79
36192;BME280;22233;42.708;23.360;2023-04-07T05:23:35;95186.13;;;4.17;59.51
36192;BME280;22233;42.708;23.360;2023-04-07T05:26:01;95195.19;;;4.31;59.49
36192;BME280;22233;42.708;23.360;2023-04-07T05:28:26;95191.13;;;4.39;58.84
36192;BME280;22233;42.708;23.360;2023-04-07T05:30:52;95188.72;;;4.32;59.58
36192;BME280;22233;42.708;23.360;2023-04-07T05:33:17;95188.94;;;4.41;57.60
36192;BME280;22233;42.708;23.360;2023-04-07T05:35:43;95197.28;;;4.39;58.10
36192;BME280;22233;42.708;23.360;2023-04-07T05:38:09;95182.72;;;4.46;57.10
36192;BME280;22233;42.708;23.360;2023-04-07T05:40:35;95186.03;;;4.32;57.24
36192;BME280;22233;42.708;23.360;2023-04-07T05:43:01;95179.00;;;4.42;56.86
36192;BME280;22233;42.708;23.360;2023-04-07T05:45:26;95198.44;;;4.68;57.00
36192;BME280;22233;42.708;23.360;2023-04-07T05:47:52;95197.22;;;4.50;57.41
36192;BME280;22233;42.708;23.360;2023-04-07T05:50:17;95193.56;;;4.30;57.89
36192;BME280;22233;42.708;23.360;2023-04-07T05:52:43;95184.97;;;4.33;58.42
36192;BME280;22233;42.708;23.360;2023-04-07T05:55:08;95194.25;;;4.51;57.57
36192;BME280;22233;42.708;23.360;2023-04-07T05:57:34;95183.31;;;4.37;57.81
36192;BME280;22233;42.708;23.360;2023-04-07T05:59:59;95202.59;;;4.50;57.68
36192;BME280;22233;42.708;23.360;2023-04-07T06:02:25;95203.47;;;4.40;57.91
36192;BME280;22233;42.708;23.360;2023-04-07T06:04:50;95186.59;;;4.29;58.31
36192;BME280;22233;42.708;23.360;2023-04-07T06:07:16;95200.19;;;4.48;58.30
36192;BME280;22233;42.708;23.360;2023-04-07T06:09:41;95197.81;;;4.81;58.08
36192;BME280;22233;42.708;23.360;2023-04-07T06:12:07;95189.78;;;4.71;57.39
36192;BME280;22233;42.708;23.360;2023-04-07T06:14:34;95173.72;;;4.60;57.46
36192;BME280;22233;42.708;23.360;2023-04-07T06:16:59;95192.22;;;4.72;56.92
36192;BME280;22233;42.708;23.360;2023-04-07T06:19:37;95201.03;;;4.38;58.42
36192;BME280;22233;42.708;23.360;2023-04-07T06:22:06;95202.00;;;4.58;58.71
36192;BME280;22233;42.708;23.360;2023-04-07T06:24:49;95205.28;;;4.89;56.90
36192;BME280;22233;42.708;23.360;2023-04-07T06:27:15;95194.22;;;4.91;56.25
36192;BME280;22233;42.708;23.360;2023-04-07T06:29:41;95185.06;;;5.21;55.83
36192;BME280;22233;42.708;23.360;2023-04-07T06:32:06;95187.44;;;5.28;54.61
36192;BME280;22233;42.708;23.360;2023-04-07T06:34:32;95191.72;;;5.29;54.03
36192;BME280;22233;42.708;23.360;2023-04-07T06:36:57;95184.28;;;5.45;52.24
36192;BME280;22233;42.708;23.360;2023-04-07T06:39:25;95191.69;;;5.34;52.23
36192;BME280;22233;42.708;23.360;2023-04-07T06:41:51;95191.69;;;5.34;53.04
36192;BME280;22233;42.708;23.360;2023-04-07T06:44:17;95195.94;;;5.40;52.83
36192;BME280;22233;42.708;23.360;2023-04-07T06:46:42;95181.56;;;5.50;53.15
36192;BME280;22233;42.708;23.360;2023-04-07T06:49:08;95184.88;;;5.66;52.86
36192;BME280;22233;42.708;23.360;2023-04-07T06:51:33;95192.97;;;5.90;53.21
36192;BME280;22233;42.708;23.360;2023-04-07T06:53:59;95188.50;;;6.23;51.92
36192;BME280;22233;42.708;23.360;2023-04-07T06:56:25;95196.59;;;6.23;51.89
36192;BME280;22233;42.708;23.360;2023-04-07T06:58:51;95189.91;;;6.58;51.22
36192;BME280;22233;42.708;23.360;2023-04-07T07:01:16;95186.59;;;6.80;50.58
36192;BME280;22233;42.708;23.360;2023-04-07T07:03:45;95192.34;;;6.74;49.72
36192;BME280;22233;42.708;23.360;2023-04-07T07:06:11;95188.19;;;6.82;49.87
36192;BME280;22233;42.708;23.360;2023-04-07T07:08:36;95183.75;;;6.91;49.64
36192;BME280;22233;42.708;23.360;2023-04-07T07:11:02;95188.72;;;7.30;48.46
36192;BME280;22233;42.708;23.360;2023-04-07T07:13:27;95191.94;;;7.32;48.68
36192;BME280;22233;42.708;23.360;2023-04-07T07:15:53;95187.09;;;7.15;49.28
36192;BME280;22233;42.708;23.360;2023-04-07T07:18:28;95200.31;;;7.17;49.61
36192;BME280;22233;42.708;23.360;2023-04-07T07:20:57;95195.06;;;7.39;48.91
36192;BME280;22233;42.708;23.360;2023-04-07T07:23:22;95192.56;;;7.43;49.05
36192;BME280;22233;42.708;23.360;2023-04-07T07:25:48;95202.78;;;7.46;49.26
36192;BME280;22233;42.708;23.360;2023-04-07T07:28:14;95199.00;;;7.61;48.09
36192;BME280;22233;42.708;23.360;2023-04-07T07:30:40;95208.13;;;7.79;48.06
36192;BME280;22233;42.708;23.360;2023-04-07T07:33:11;95197.91;;;7.76;48.33
36192;BME280;22233;42.708;23.360;2023-04-07T07:35:36;95217.25;;;7.83;48.52
36192;BME280;22233;42.708;23.360;2023-04-07T07:38:02;95216.03;;;8.03;48.49
36192;BME280;22233;42.708;23.360;2023-04-07T07:40:27;95220.44;;;7.71;47.87
36192;BME280;22233;42.708;23.360;2023-04-07T07:42:53;95214.13;;;7.15;48.42
36192;BME280;22233;42.708;23.360;2023-04-07T07:45:18;95212.59;;;7.09;48.07
36192;BME280;22233;42.708;23.360;2023-04-07T07:47:44;95207.84;;;7.34;48.85
36192;BME280;22233;42.708;23.360;2023-04-07T07:50:09;95211.81;;;7.69;47.89
36192;BME280;22233;42.708;23.360;2023-04-07T07:52:35;95204.03;;;7.95;47.67
36192;BME280;22233;42.708;23.360;2023-04-07T07:55:01;95203.97;;;8.37;48.05
36192;BME280;22233;42.708;23.360;2023-04-07T07:57:26;95217.19;;;8.38;44.41
36192;BME280;22233;42.708;23.360;2023-04-07T07:59:52;95206.84;;;8.68;45.17
36192;BME280;22233;42.708;23.360;2023-04-07T08:02:17;95219.81;;;8.57;42.44
36192;BME280;22233;42.708;23.360;2023-04-07T08:04:43;95215.22;;;8.30;41.59
36192;BME280;22233;42.708;23.360;2023-04-07T08:07:09;95207.44;;;8.15;40.31
36192;BME280;22233;42.708;23.360;2023-04-07T08:09:36;95203.59;;;7.88;39.77
36192;BME280;22233;42.708;23.360;2023-04-07T08:12:02;95196.69;;;8.10;40.12
36192;BME280;22233;42.708;23.360;2023-04-07T08:14:28;95209.59;;;8.13;39.92
36192;BME280;22233;42.708;23.360;2023-04-07T08:16:54;95204.50;;;7.84;40.91
36192;BME280;22233;42.708;23.360;2023-04-07T08:19:19;95218.50;;;7.58;41.22
36192;BME280;22233;42.708;23.360;2023-04-07T08:21:45;95204.22;;;7.85;40.27
36192;BME280;22233;42.708;23.360;2023-04-07T08:24:10;95197.41;;;7.88;40.57
36192;BME280;22233;42.708;23.360;2023-04-07T08:26:36;95207.22;;;8.25;40.21
36192;BME280;22233;42.708;23.360;2023-04-07T08:29:01;95213.34;;;7.89;40.55
36192;BME280;22233;42.708;23.360;2023-04-07T08:31:27;95203.31;;;8.17;39.45
36192;BME280;22233;42.708;23.360;2023-04-07T08:33:53;95207.00;;;8.35;40.34
36192;BME280;22233;42.708;23.360;2023-04-07T08:36:25;95206.63;;;7.73;40.34
36192;BME280;22233;42.708;23.360;2023-04-07T08:38:52;95184.66;;;7.33;41.37
36192;BME280;22233;42.708;23.360;2023-04-07T08:41:23;95207.81;;;7.94;40.52
36192;BME280;22233;42.708;23.360;2023-04-07T08:43:52;95196.78;;;8.05;40.55
36192;BME280;22233;42.708;23.360;2023-04-07T08:46:20;95206.72;;;7.68;41.05
36192;BME280;22233;42.708;23.360;2023-04-07T08:48:50;95195.59;;;7.55;41.52
36192;BME280;22233;42.708;23.360;2023-04-07T08:51:21;95200.59;;;7.76;40.78
36192;BME280;22233;42.708;23.360;2023-04-07T08:53:52;95209.44;;;8.09;40.27
36192;BME280;22233;42.708;23.360;2023-04-07T08:56:19;95198.81;;;7.99;39.37
36192;BME280;22233;42.708;23.360;2023-04-07T08:58:47;95210.53;;;7.94;39.61
36192;BME280;22233;42.708;23.360;2023-04-07T09:01:13;95206.09;;;8.12;40.03
36192;BME280;22233;42.708;23.360;2023-04-07T09:03:38;95208.53;;;8.00;40.57
36192;BME280;22233;42.708;23.360;2023-04-07T09:06:05;95208.50;;;7.72;40.43
36192;BME280;22233;42.708;23.360;2023-04-07T09:08:30;95213.72;;;7.69;41.21
36192;BME280;22233;42.708;23.360;2023-04-07T09:10:56;95197.19;;;8.12;40.38
36192;BME280;22233;42.708;23.360;2023-04-07T09:13:23;95214.84;;;8.23;40.06
36192;BME280;22233;42.708;23.360;2023-04-07T09:15:49;95224.03;;;8.50;39.54
36192;BME280;22233;42.708;23.360;2023-04-07T09:18:18;95216.63;;;8.42;39.58
36192;BME280;22233;42.708;23.360;2023-04-07T09:20:57;95211.53;;;8.76;39.13
36192;BME280;22233;42.708;23.360;2023-04-07T09:23:30;95219.81;;;8.57;39.09
36192;BME280;22233;42.708;23.360;2023-04-07T09:25:57;95227.72;;;8.54;39.26
36192;BME280;22233;42.708;23.360;2023-04-07T09:28:42;95219.84;;;8.44;39.38
36192;BME280;22233;42.708;23.360;2023-04-07T09:31:08;95215.69;;;8.60;39.69
36192;BME280;22233;42.708;23.360;2023-04-07T09:33:33;95185.28;;;8.63;38.66
36192;BME280;22233;42.708;23.360;2023-04-07T09:36:00;95200.69;;;8.99;39.41
36192;BME280;22233;42.708;23.360;2023-04-07T09:38:36;95209.22;;;8.84;38.82
36192;BME280;22233;42.708;23.360;2023-04-07T09:41:06;95216.97;;;9.22;38.65
36192;BME280;22233;42.708;23.360;2023-04-07T09:43:35;95212.94;;;8.74;39.94
36192;BME280;22233;42.708;23.360;2023-04-07T09:46:20;95212.34;;;9.22;38.71
36192;BME280;22233;42.708;23.360;2023-04-07T09:48:45;95211.25;;;8.64;40.26
36192;BME280;22233;42.708;23.360;2023-04-07T09:51:17;95224.31;;;8.34;40.67
36192;BME280;22233;42.708;23.360;2023-04-07T09:53:51;95214.22;;;7.98;41.81
36192;BME280;22233;42.708;23.360;2023-04-07T09:56:20;95202.31;;;7.99;41.86
36192;BME280;22233;42.708;23.360;2023-04-07T09:58:48;95215.22;;;8.30;41.05
36192;BME280;22233;42.708;23.360;2023-04-07T10:01:16;95226.16;;;8.25;40.62
36192;BME280;22233;42.708;23.360;2023-04-07T10:03:42;95213.28;;;8.58;39.48
36192;BME280;22233;42.708;23.360;2023-04-07T10:06:08;95219.53;;;8.45;40.47
36192;BME280;22233;42.708;23.360;2023-04-07T10:08:35;95220.03;;;8.47;40.96
36192;BME280;22233;42.708;23.360;2023-04-07T10:11:02;95220.13;;;8.28;41.90
36192;BME280;22233;42.708;23.360;2023-04-07T10:13:33;95215.22;;;8.30;42.16
36192;BME280;22233;42.708;23.360;2023-04-07T10:15:59;95220.53;;;7.94;42.42
36192;BME280;22233;42.708;23.360;2023-04-07T10:18:31;95227.88;;;8.21;43.42
36192;BME280;22233;42.708;23.360;2023-04-07T10:21:04;95220.53;;;8.35;43.34
36192;BME280;22233;42.708;23.360;2023-04-07T10:26:25;95225.69;;;8.73;43.13
36192;BME280;22233;42.708;23.360;2023-04-07T10:28:58;95217.38;;;8.92;42.84
36192;BME280;22233;42.708;23.360;2023-04-07T10:31:24;95208.81;;;8.76;42.77
36192;BME280;22233;42.708;23.360;2023-04-07T10:33:53;95216.34;;;9.02;42.85
36192;BME280;22233;42.708;23.360;2023-04-07T10:36:20;95241.44;;;8.71;42.01
36192;BME280;22233;42.708;23.360;2023-04-07T10:41:37;95244.25;;;8.66;42.79
36192;BME280;22233;42.708;23.360;2023-04-07T10:44:06;95220.56;;;8.72;41.99
36192;BME280;22233;42.708;23.360;2023-04-07T10:49:10;95225.75;;;8.82;42.64
36192;BME280;22233;42.708;23.360;2023-04-07T10:51:35;95225.91;;;8.99;43.21
36192;BME280;22233;42.708;23.360;2023-04-07T10:54:21;95239.25;;;8.59;43.20
36192;BME280;22233;42.708;23.360;2023-04-07T10:57:17;95233.66;;;8.28;43.11
36192;BME280;22233;42.708;23.360;2023-04-07T11:02:38;95239.06;;;8.56;43.02
36192;BME280;22233;42.708;23.360;2023-04-07T11:05:04;95242.97;;;8.64;42.44
36192;BME280;22233;42.708;23.360;2023-04-07T11:07:47;95235.84;;;8.54;43.24
36192;BME280;22233;42.708;23.360;2023-04-07T11:10:14;95229.03;;;8.93;41.87
36192;BME280;22233;42.708;23.360;2023-04-07T11:12:41;95243.69;;;9.14;41.80
36192;BME280;22233;42.708;23.360;2023-04-07T11:15:20;95234.22;;;9.26;41.78
36192;BME280;22233;42.708;23.360;2023-04-07T11:18:05;95244.03;;;8.99;41.92
36192;BME280;22233;42.708;23.360;2023-04-07T11:23:09;95241.66;;;9.20;42.33
36192;BME280;22233;42.708;23.360;2023-04-07T11:25:35;95243.44;;;9.25;42.55
36192;BME280;22233;42.708;23.360;2023-04-07T11:28:03;95237.31;;;8.74;42.52
36192;BME280;22233;42.708;23.360;2023-04-07T11:30:28;95245.66;;;9.00;43.02
36192;BME280;22233;42.708;23.360;2023-04-07T11:32:55;95237.91;;;9.30;42.18
36192;BME280;22233;42.708;23.360;2023-04-07T11:35:21;95245.34;;;9.47;41.71
36192;BME280;22233;42.708;23.360;2023-04-07T11:37:47;95244.91;;;9.53;42.29
36192;BME280;22233;42.708;23.360;2023-04-07T11:40:12;95238.59;;;9.67;41.96
36192;BME280;22233;42.708;23.360;2023-04-07T11:42:54;95216.91;;;9.67;41.69
36192;BME280;22233;42.708;23.360;2023-04-07T11:45:20;95254.00;;;9.57;41.09
36192;BME280;22233;42.708;23.360;2023-04-07T11:47:46;95234.53;;;9.55;41.75
36192;BME280;22233;42.708;23.360;2023-04-07T11:50:11;95252.44;;;9.56;41.48
36192;BME280;22233;42.708;23.360;2023-04-07T11:52:44;95244.06;;;9.75;41.63
36192;BME280;22233;42.708;23.360;2023-04-07T11:55:20;95245.25;;;9.92;42.00
36192;BME280;22233;42.708;23.360;2023-04-07T11:57:47;95256.16;;;9.38;42.18
36192;BME280;22233;42.708;23.360;2023-04-07T12:00:13;95257.00;;;9.25;42.23
36192;BME280;22233;42.708;23.360;2023-04-07T12:02:38;95260.88;;;9.32;42.40
36192;BME280;22233;42.708;23.360;2023-04-07T12:05:05;95236.28;;;8.84;42.69
36192;BME280;22233;42.708;23.360;2023-04-07T12:07:31;95246.50;;;9.54;42.39
36192;BME280;22233;42.708;23.360;2023-04-07T12:09:57;95237.81;;;9.66;42.04
36192;BME280;22233;42.708;23.360;2023-04-07T12:12:27;95247.06;;;9.96;41.24
36192;BME280;22233;42.708;23.360;2023-04-07T12:14:54;95229.59;;;9.80;41.44
36192;BME280;22233;42.708;23.360;2023-04-07T12:17:24;95251.94;;;9.86;41.55
36192;BME280;22233;42.708;23.360;2023-04-07T12:19:50;95253.31;;;9.74;41.07
36192;BME280;22233;42.708;23.360;2023-04-07T12:22:16;95247.19;;;10.31;41.91
36192;BME280;22233;42.708;23.360;2023-04-07T12:24:42;95243.19;;;10.29;40.81
36192;BME280;22233;42.708;23.360;2023-04-07T12:27:07;95243.84;;;9.94;41.31
36192;BME280;22233;42.708;23.360;2023-04-07T12:29:33;95236.72;;;10.16;40.97
36192;BME280;22233;42.708;23.360;2023-04-07T12:31:59;95249.13;;;10.39;40.71
36192;BME280;22233;42.708;23.360;2023-04-07T12:34:25;95250.91;;;9.73;41.26
36192;BME280;22233;42.708;23.360;2023-04-07T12:36:51;95248.44;;;9.85;41.67
36192;BME280;22233;42.708;23.360;2023-04-07T12:39:17;95245.53;;;10.22;41.20
36192;BME280;22233;42.708;23.360;2023-04-07T12:41:42;95237.59;;;9.54;41.26
36192;BME280;22233;42.708;23.360;2023-04-07T12:44:09;95245.31;;;10.00;42.22
36192;BME280;22233;42.708;23.360;2023-04-07T12:46:35;95239.34;;;9.90;40.43
36192;BME280;22233;42.708;23.360;2023-04-07T12:49:00;95237.38;;;9.82;40.87
36192;BME280;22233;42.708;23.360;2023-04-07T12:51:27;95246.66;;;10.20;41.74
36192;BME280;22233;42.708;23.360;2023-04-07T12:53:52;95241.16;;;10.34;40.87
36192;BME280;22233;42.708;23.360;2023-04-07T12:56:19;95231.75;;;10.49;41.52
36192;BME280;22233;42.708;23.360;2023-04-07T12:58:46;95240.50;;;10.37;40.88
36192;BME280;22233;42.708;23.360;2023-04-07T13:01:12;95248.44;;;10.25;40.64
36192;BME280;22233;42.708;23.360;2023-04-07T13:03:38;95248.06;;;10.18;41.54
36192;BME280;22233;42.708;23.360;2023-04-07T13:06:04;95252.91;;;9.90;41.04
36192;BME280;22233;42.708;23.360;2023-04-07T13:08:30;95237.44;;;9.59;41.76
36192;BME280;22233;42.708;23.360;2023-04-07T13:10:55;95262.63;;;9.59;42.60
36192;BME280;22233;42.708;23.360;2023-04-07T13:13:22;95253.84;;;9.31;43.38
36192;BME280;22233;42.708;23.360;2023-04-07T13:15:47;95234.53;;;9.78;42.06
36192;BME280;22233;42.708;23.360;2023-04-07T13:18:13;95229.41;;;9.23;42.37
36192;BME280;22233;42.708;23.360;2023-04-07T13:20:38;95250.66;;;9.83;42.10
36192;BME280;22233;42.708;23.360;2023-04-07T13:23:04;95261.00;;;9.81;41.69